KCEZ/CEZ METAR and TAF weather

Enter ICAO airport designator
Station Type Date Time Source
KCEZ METAR 2020/04/07 02:53 UTC NOAA

KCEZ 070253Z AUTO 19007KT 10SM CLR 09/M11 A2999 RMK AO2 SLP115 T00941106 53015


Station Type Date Time Source
KCEZ Decoded METAR 2020/04/07 02:53 UTC NOAA

CORTEZ MONTEZUMA COUNTY AIRPORT , CO, United States (KCEZ) 37-18N 108-38W 1797M
Apr 06, 2020 - 10:53 PM EDT / 2020.04.07 0253 UTC
Wind: from the S (190 degrees) at 8 MPH (7 KT):0
Visibility: 10 mile(s):0
Sky conditions: clear
Temperature: 48.9 F (9.4 C)
Dew Point: 12.9 F (-10.6 C)
Relative Humidity: 23%
Pressure (altimeter): 29.99 in. Hg (1015 hPa)
Pressure tendency: 0.04 inches (1.5 hPa) higher than three hours ago
ob: KCEZ 070253Z AUTO 19007KT 10SM CLR 09/M11 A2999 RMK AO2 SLP115 T00941106 53015
cycle: 3

Station Type Date Time Source
KCEZ TAF UTC NOAA

Error!

Example: see airport list